Terminal Aerodrome Forecast
Issued by NWS Milwaukee/Sullivan, WI

Home | Current Version | Previous Version | Text Only | Print | Product List | Glossary On
Versions: 1 2 3 4 5 6 7 8 9 10 11 12 13 14 15 16 17 18 19 20 21 22
000
FTUS43 KMKX 301446 AAA
TAFMKE
TAF AMD
KMKE 301446Z 3015/3118 29006KT P6SM FEW250
     FM301700 15007KT P6SM FEW050
     FM310300 VRB03KT P6SM FEW060
     FM310900 00000KT P6SM BKN060
     FM311400 15007KT P6SM SCT060=

USA.gov is the U.S. government's official web portal to all federal, state and local government web resources and services.